sensor_id;sensor_type;location;lat;lon;timestamp;pressure;altitude;pressure_sealevel;temperature;humidity
42519;BME280;28147;47.520;18.920;2023-05-03T00:00:51;98725.91;;;18.64;64.85
42519;BME280;28147;47.520;18.920;2023-05-03T00:03:16;98719.94;;;18.67;64.15
42519;BME280;28147;47.520;18.920;2023-05-03T00:05:41;98718.41;;;19.01;63.46
42519;BME280;28147;47.520;18.920;2023-05-03T00:08:07;98726.59;;;18.90;63.17
42519;BME280;28147;47.520;18.920;2023-05-03T00:10:32;98709.16;;;18.67;64.36
42519;BME280;28147;47.520;18.920;2023-05-03T00:12:58;98706.00;;;18.55;64.51
42519;BME280;28147;47.520;18.920;2023-05-03T00:15:23;98703.25;;;18.65;64.67
42519;BME280;28147;47.520;18.920;2023-05-03T00:17:48;98700.72;;;18.35;64.97
42519;BME280;28147;47.520;18.920;2023-05-03T00:20:14;98706.63;;;18.37;64.85
42519;BME280;28147;47.520;18.920;2023-05-03T00:22:40;98706.41;;;18.28;65.76
42519;BME280;28147;47.520;18.920;2023-05-03T00:25:07;98700.53;;;18.16;66.33
42519;BME280;28147;47.520;18.920;2023-05-03T00:27:33;98698.28;;;18.33;65.98
42519;BME280;28147;47.520;18.920;2023-05-03T00:29:58;98698.78;;;18.40;65.36
42519;BME280;28147;47.520;18.920;2023-05-03T00:32:24;98701.34;;;18.06;66.49
42519;BME280;28147;47.520;18.920;2023-05-03T00:34:56;98704.28;;;18.20;66.25
42519;BME280;28147;47.520;18.920;2023-05-03T00:37:22;98707.38;;;18.47;64.85
42519;BME280;28147;47.520;18.920;2023-05-03T00:39:48;98710.22;;;18.17;65.77
42519;BME280;28147;47.520;18.920;2023-05-03T00:42:14;98706.69;;;18.27;66.30
42519;BME280;28147;47.520;18.920;2023-05-03T00:44:39;98700.25;;;18.22;65.75
42519;BME280;28147;47.520;18.920;2023-05-03T00:47:05;98714.88;;;17.96;66.87
42519;BME280;28147;47.520;18.920;2023-05-03T00:49:32;98713.22;;;18.05;67.29
42519;BME280;28147;47.520;18.920;2023-05-03T00:51:57;98710.03;;;17.93;67.01
42519;BME280;28147;47.520;18.920;2023-05-03T00:54:26;98708.31;;;18.17;65.86
42519;BME280;28147;47.520;18.920;2023-05-03T00:56:52;98721.19;;;18.36;65.97
42519;BME280;28147;47.520;18.920;2023-05-03T00:59:18;98716.53;;;18.57;65.12
42519;BME280;28147;47.520;18.920;2023-05-03T01:01:47;98718.03;;;18.13;66.49
42519;BME280;28147;47.520;18.920;2023-05-03T01:04:13;98723.97;;;18.15;66.09
42519;BME280;28147;47.520;18.920;2023-05-03T01:12:32;98734.59;;;18.56;65.56
42519;BME280;28147;47.520;18.920;2023-05-03T01:15:24;98742.13;;;18.54;67.15
42519;BME280;28147;47.520;18.920;2023-05-03T01:17:57;98730.81;;;18.57;66.26
42519;BME280;28147;47.520;18.920;2023-05-03T01:20:26;98730.91;;;18.86;65.08
42519;BME280;28147;47.520;18.920;2023-05-03T01:25:23;98730.47;;;18.74;65.50
42519;BME280;28147;47.520;18.920;2023-05-03T01:27:49;98734.53;;;18.66;66.19
42519;BME280;28147;47.520;18.920;2023-05-03T01:30:15;98735.59;;;18.76;65.83
42519;BME280;28147;47.520;18.920;2023-05-03T01:33:04;98742.63;;;18.71;65.90
42519;BME280;28147;47.520;18.920;2023-05-03T01:35:39;98734.81;;;18.60;66.23
42519;BME280;28147;47.520;18.920;2023-05-03T01:38:07;98740.56;;;18.43;66.78
42519;BME280;28147;47.520;18.920;2023-05-03T01:40:39;98739.47;;;18.49;66.44
42519;BME280;28147;47.520;18.920;2023-05-03T01:43:08;98734.59;;;18.56;65.58
42519;BME280;28147;47.520;18.920;2023-05-03T01:45:35;98735.16;;;18.48;65.45
42519;BME280;28147;47.520;18.920;2023-05-03T01:48:00;98735.22;;;18.38;66.19
42519;BME280;28147;47.520;18.920;2023-05-03T01:50:26;98734.72;;;18.20;66.85
42519;BME280;28147;47.520;18.920;2023-05-03T01:52:51;98728.03;;;18.08;67.06
42519;BME280;28147;47.520;18.920;2023-05-03T01:55:17;98733.41;;;18.13;67.42
42519;BME280;28147;47.520;18.920;2023-05-03T01:57:43;98727.97;;;18.18;67.07
42519;BME280;28147;47.520;18.920;2023-05-03T02:00:09;98717.97;;;18.29;66.72
42519;BME280;28147;47.520;18.920;2023-05-03T02:02:34;98720.41;;;18.30;66.21
42519;BME280;28147;47.520;18.920;2023-05-03T02:04:59;98712.88;;;18.27;66.25
42519;BME280;28147;47.520;18.920;2023-05-03T02:07:25;98716.63;;;18.31;66.75
42519;BME280;28147;47.520;18.920;2023-05-03T02:09:50;98715.75;;;18.46;66.14
42519;BME280;28147;47.520;18.920;2023-05-03T02:12:16;98709.81;;;18.44;65.92
42519;BME280;28147;47.520;18.920;2023-05-03T02:14:41;98711.50;;;18.35;66.44
42519;BME280;28147;47.520;18.920;2023-05-03T02:17:07;98711.34;;;18.06;67.15
42519;BME280;28147;47.520;18.920;2023-05-03T02:19:32;98706.41;;;18.28;66.84
42519;BME280;28147;47.520;18.920;2023-05-03T02:21:57;98711.94;;;18.52;66.09
42519;BME280;28147;47.520;18.920;2023-05-03T02:24:23;98706.00;;;18.55;65.59
42519;BME280;28147;47.520;18.920;2023-05-03T02:26:48;98705.81;;;18.36;66.59
42519;BME280;28147;47.520;18.920;2023-05-03T02:29:15;98706.28;;;18.48;65.86
42519;BME280;28147;47.520;18.920;2023-05-03T02:31:40;98703.50;;;18.09;67.38
42519;BME280;28147;47.520;18.920;2023-05-03T02:34:06;98693.97;;;18.37;66.56
42519;BME280;28147;47.520;18.920;2023-05-03T02:36:31;98701.22;;;18.37;66.30
42519;BME280;28147;47.520;18.920;2023-05-03T02:38:56;98696.44;;;18.23;66.31
42519;BME280;28147;47.520;18.920;2023-05-03T02:41:22;98694.63;;;18.09;66.76
42519;BME280;28147;47.520;18.920;2023-05-03T02:43:47;98697.75;;;18.31;65.91
42519;BME280;28147;47.520;18.920;2023-05-03T02:46:13;98701.56;;;18.30;65.93
42519;BME280;28147;47.520;18.920;2023-05-03T02:48:38;98700.03;;;17.98;66.83
42519;BME280;28147;47.520;18.920;2023-05-03T02:51:04;98695.97;;;18.11;66.39
42519;BME280;28147;47.520;18.920;2023-05-03T02:53:30;98699.47;;;18.07;67.17
42519;BME280;28147;47.520;18.920;2023-05-03T02:55:55;98700.22;;;18.28;65.96
42519;BME280;28147;47.520;18.920;2023-05-03T02:58:21;98694.88;;;18.12;66.52
42519;BME280;28147;47.520;18.920;2023-05-03T03:00:47;98695.09;;;18.26;65.79
42519;BME280;28147;47.520;18.920;2023-05-03T03:03:12;98691.63;;;18.15;66.82
42519;BME280;28147;47.520;18.920;2023-05-03T03:05:37;98693.75;;;18.23;66.67
42519;BME280;28147;47.520;18.920;2023-05-03T03:08:03;98697.03;;;18.15;66.49
42519;BME280;28147;47.520;18.920;2023-05-03T03:10:28;98681.66;;;18.16;66.26
42519;BME280;28147;47.520;18.920;2023-05-03T03:12:54;98687.81;;;18.21;65.95
42519;BME280;28147;47.520;18.920;2023-05-03T03:15:19;98682.34;;;18.37;65.13
42519;BME280;28147;47.520;18.920;2023-05-03T03:17:45;98684.63;;;18.14;65.45
42519;BME280;28147;47.520;18.920;2023-05-03T03:20:11;98690.00;;;18.14;65.39
42519;BME280;28147;47.520;18.920;2023-05-03T03:22:40;98691.59;;;18.20;65.40
42519;BME280;28147;47.520;18.920;2023-05-03T03:25:06;98690.19;;;18.33;64.55
42519;BME280;28147;47.520;18.920;2023-05-03T03:27:32;98692.88;;;18.38;64.79
42519;BME280;28147;47.520;18.920;2023-05-03T03:29:58;98696.06;;;18.51;64.31
42519;BME280;28147;47.520;18.920;2023-05-03T03:32:24;98700.84;;;18.64;63.62
42519;BME280;28147;47.520;18.920;2023-05-03T03:34:50;98699.53;;;18.56;63.79
42519;BME280;28147;47.520;18.920;2023-05-03T03:37:16;98700.91;;;18.48;63.64
42519;BME280;28147;47.520;18.920;2023-05-03T03:39:41;98708.94;;;18.59;63.69
42519;BME280;28147;47.520;18.920;2023-05-03T03:42:09;98706.03;;;18.50;64.30
42519;BME280;28147;47.520;18.920;2023-05-03T03:44:35;98711.44;;;18.50;64.07
42519;BME280;28147;47.520;18.920;2023-05-03T03:47:00;98713.63;;;18.43;64.14
42519;BME280;28147;47.520;18.920;2023-05-03T03:49:26;98717.44;;;18.32;64.39
42519;BME280;28147;47.520;18.920;2023-05-03T03:51:51;98715.03;;;18.30;64.33
42519;BME280;28147;47.520;18.920;2023-05-03T03:54:17;98719.63;;;18.30;64.65
42519;BME280;28147;47.520;18.920;2023-05-03T03:56:42;98709.38;;;18.21;65.27
42519;BME280;28147;47.520;18.920;2023-05-03T03:59:07;98711.06;;;18.02;65.61
42519;BME280;28147;47.520;18.920;2023-05-03T04:01:33;98709.13;;;18.18;65.02
42519;BME280;28147;47.520;18.920;2023-05-03T04:03:58;98713.06;;;18.46;64.04
42519;BME280;28147;47.520;18.920;2023-05-03T04:06:25;98709.97;;;18.73;62.90
42519;BME280;28147;47.520;18.920;2023-05-03T04:08:51;98714.78;;;18.81;61.71
42519;BME280;28147;47.520;18.920;2023-05-03T04:11:16;98715.94;;;18.60;62.72
42519;BME280;28147;47.520;18.920;2023-05-03T04:13:41;98717.59;;;18.56;63.05
42519;BME280;28147;47.520;18.920;2023-05-03T04:16:07;98718.47;;;18.41;63.43
42519;BME280;28147;47.520;18.920;2023-05-03T04:18:33;98720.41;;;18.25;63.86
42519;BME280;28147;47.520;18.920;2023-05-03T04:20:59;98726.97;;;18.63;62.73
42519;BME280;28147;47.520;18.920;2023-05-03T04:23:24;98731.59;;;18.58;63.66
42519;BME280;28147;47.520;18.920;2023-05-03T04:25:49;98734.81;;;18.65;63.69
42519;BME280;28147;47.520;18.920;2023-05-03T04:28:15;98733.63;;;18.21;65.33
42519;BME280;28147;47.520;18.920;2023-05-03T04:30:41;98741.22;;;18.19;65.58
42519;BME280;28147;47.520;18.920;2023-05-03T04:33:08;98742.53;;;18.27;65.37
42519;BME280;28147;47.520;18.920;2023-05-03T04:35:34;98745.66;;;18.44;64.73
42519;BME280;28147;47.520;18.920;2023-05-03T04:38:01;98759.38;;;18.58;64.40
42519;BME280;28147;47.520;18.920;2023-05-03T04:40:27;98756.72;;;18.53;65.25
42519;BME280;28147;47.520;18.920;2023-05-03T04:42:52;98761.22;;;18.68;64.12
42519;BME280;28147;47.520;18.920;2023-05-03T04:45:18;98761.56;;;18.51;65.31
42519;BME280;28147;47.520;18.920;2023-05-03T04:47:45;98767.28;;;18.39;65.88
42519;BME280;28147;47.520;18.920;2023-05-03T04:50:10;98778.34;;;18.33;66.68
42519;BME280;28147;47.520;18.920;2023-05-03T04:52:36;98769.34;;;18.58;66.13
42519;BME280;28147;47.520;18.920;2023-05-03T04:55:02;98775.63;;;18.43;66.68
42519;BME280;28147;47.520;18.920;2023-05-03T04:57:28;98779.16;;;18.28;67.76
42519;BME280;28147;47.520;18.920;2023-05-03T04:59:54;98783.41;;;18.50;67.42
42519;BME280;28147;47.520;18.920;2023-05-03T05:02:20;98786.22;;;18.14;68.48
42519;BME280;28147;47.520;18.920;2023-05-03T05:04:45;98785.38;;;18.23;69.00
42519;BME280;28147;47.520;18.920;2023-05-03T05:07:11;98787.03;;;18.09;69.41
42519;BME280;28147;47.520;18.920;2023-05-03T05:09:37;98780.53;;;18.20;69.67
42519;BME280;28147;47.520;18.920;2023-05-03T05:12:02;98781.38;;;18.16;69.92
42519;BME280;28147;47.520;18.920;2023-05-03T05:14:29;98788.34;;;18.17;70.27
42519;BME280;28147;47.520;18.920;2023-05-03T05:16:55;98789.91;;;18.38;68.31
42519;BME280;28147;47.520;18.920;2023-05-03T05:19:21;98785.03;;;18.51;69.06
42519;BME280;28147;47.520;18.920;2023-05-03T05:21:46;98780.38;;;18.71;68.24
42519;BME280;28147;47.520;18.920;2023-05-03T05:24:12;98778.38;;;18.92;67.50
42519;BME280;28147;47.520;18.920;2023-05-03T05:26:37;98782.34;;;19.05;67.68
42519;BME280;28147;47.520;18.920;2023-05-03T05:29:03;98781.28;;;19.06;66.88
42519;BME280;28147;47.520;18.920;2023-05-03T05:31:30;98788.81;;;19.09;68.57
42519;BME280;28147;47.520;18.920;2023-05-03T05:33:55;98788.81;;;19.04;67.91
42519;BME280;28147;47.520;18.920;2023-05-03T05:36:21;98786.00;;;19.25;66.88
42519;BME280;28147;47.520;18.920;2023-05-03T05:38:46;98794.13;;;19.25;66.94
42519;BME280;28147;47.520;18.920;2023-05-03T05:41:12;98796.72;;;19.40;66.31
42519;BME280;28147;47.520;18.920;2023-05-03T05:43:37;98801.63;;;19.33;66.58
42519;BME280;28147;47.520;18.920;2023-05-03T05:46:03;98806.91;;;19.48;66.54
42519;BME280;28147;47.520;18.920;2023-05-03T05:48:28;98803.66;;;19.51;66.44
42519;BME280;28147;47.520;18.920;2023-05-03T05:50:54;98799.66;;;19.38;66.77
42519;BME280;28147;47.520;18.920;2023-05-03T05:53:20;98801.84;;;19.36;67.13
42519;BME280;28147;47.520;18.920;2023-05-03T05:55:45;98804.53;;;19.76;66.33
42519;BME280;28147;47.520;18.920;2023-05-03T05:58:11;98803.88;;;19.55;65.77
42519;BME280;28147;47.520;18.920;2023-05-03T06:00:37;98805.81;;;19.49;65.86
42519;BME280;28147;47.520;18.920;2023-05-03T06:03:04;98802.13;;;19.35;66.02
42519;BME280;28147;47.520;18.920;2023-05-03T06:05:29;98813.78;;;19.30;67.32
42519;BME280;28147;47.520;18.920;2023-05-03T06:07:55;98808.44;;;19.59;66.11
42519;BME280;28147;47.520;18.920;2023-05-03T06:10:20;98819.97;;;19.31;67.01
42519;BME280;28147;47.520;18.920;2023-05-03T06:12:46;98814.47;;;19.46;66.37
42519;BME280;28147;47.520;18.920;2023-05-03T06:15:11;98826.13;;;19.41;66.34
42519;BME280;28147;47.520;18.920;2023-05-03T06:17:37;98828.91;;;19.26;66.59
42519;BME280;28147;47.520;18.920;2023-05-03T06:20:03;98825.03;;;19.42;64.79
42519;BME280;28147;47.520;18.920;2023-05-03T06:22:28;98836.66;;;19.38;67.33
42519;BME280;28147;47.520;18.920;2023-05-03T06:24:54;98839.72;;;19.71;63.90
42519;BME280;28147;47.520;18.920;2023-05-03T06:27:20;98831.44;;;20.20;62.44
42519;BME280;28147;47.520;18.920;2023-05-03T06:29:46;98849.25;;;20.21;60.34
42519;BME280;28147;47.520;18.920;2023-05-03T06:32:12;98854.50;;;19.78;64.45
42519;BME280;28147;47.520;18.920;2023-05-03T06:34:37;98852.94;;;19.72;63.90
42519;BME280;28147;47.520;18.920;2023-05-03T06:37:03;98851.59;;;19.69;61.91
42519;BME280;28147;47.520;18.920;2023-05-03T06:39:29;98848.75;;;19.45;61.78
42519;BME280;28147;47.520;18.920;2023-05-03T06:41:56;98862.16;;;19.61;62.20
42519;BME280;28147;47.520;18.920;2023-05-03T06:44:22;98861.63;;;19.64;61.47
42519;BME280;28147;47.520;18.920;2023-05-03T06:46:47;98857.09;;;19.93;60.61
42519;BME280;28147;47.520;18.920;2023-05-03T06:49:13;98861.88;;;20.02;63.37
42519;BME280;28147;47.520;18.920;2023-05-03T06:51:38;98856.41;;;20.07;62.35
42519;BME280;28147;47.520;18.920;2023-05-03T06:54:04;98864.44;;;20.17;61.86
42519;BME280;28147;47.520;18.920;2023-05-03T06:56:34;98859.19;;;20.31;60.27
42519;BME280;28147;47.520;18.920;2023-05-03T06:59:00;98861.63;;;19.98;62.43
42519;BME280;28147;47.520;18.920;2023-05-03T07:01:26;98861.09;;;20.25;62.00
42519;BME280;28147;47.520;18.920;2023-05-03T07:03:52;98857.78;;;20.33;59.65
42519;BME280;28147;47.520;18.920;2023-05-03T07:06:17;98859.53;;;20.48;61.66
42519;BME280;28147;47.520;18.920;2023-05-03T07:08:44;98856.09;;;20.67;59.43
42519;BME280;28147;47.520;18.920;2023-05-03T07:11:09;98861.97;;;20.74;60.63
42519;BME280;28147;47.520;18.920;2023-05-03T07:13:35;98860.31;;;20.54;61.50
42519;BME280;28147;47.520;18.920;2023-05-03T07:16:00;98863.75;;;20.59;61.02
42519;BME280;28147;47.520;18.920;2023-05-03T07:18:26;98869.31;;;20.68;61.16
42519;BME280;28147;47.520;18.920;2023-05-03T07:20:52;98872.47;;;20.80;60.76
42519;BME280;28147;47.520;18.920;2023-05-03T07:23:17;98868.81;;;20.66;60.41
42519;BME280;28147;47.520;18.920;2023-05-03T07:25:44;98875.31;;;20.89;58.56
42519;BME280;28147;47.520;18.920;2023-05-03T07:28:12;98868.13;;;21.22;58.48
42519;BME280;28147;47.520;18.920;2023-05-03T07:30:38;98869.13;;;21.50;58.11
42519;BME280;28147;47.520;18.920;2023-05-03T07:33:03;98864.41;;;21.75;57.77
42519;BME280;28147;47.520;18.920;2023-05-03T07:35:28;98860.94;;;21.88;56.02
42519;BME280;28147;47.520;18.920;2023-05-03T07:37:55;98862.06;;;22.01;56.11
42519;BME280;28147;47.520;18.920;2023-05-03T07:40:21;98859.44;;;21.96;55.12
42519;BME280;28147;47.520;18.920;2023-05-03T07:42:46;98860.69;;;22.03;55.72
42519;BME280;28147;47.520;18.920;2023-05-03T07:45:12;98864.00;;;22.33;53.40
42519;BME280;28147;47.520;18.920;2023-05-03T07:47:37;98854.78;;;22.62;53.08
42519;BME280;28147;47.520;18.920;2023-05-03T07:50:05;98866.00;;;22.69;51.49
42519;BME280;28147;47.520;18.920;2023-05-03T07:52:37;98860.28;;;22.84;51.56
42519;BME280;28147;47.520;18.920;2023-05-03T07:55:03;98862.28;;;22.04;51.90
42519;BME280;28147;47.520;18.920;2023-05-03T07:57:29;98871.06;;;22.62;51.76
42519;BME280;28147;47.520;18.920;2023-05-03T07:59:55;98859.06;;;23.54;50.15
42519;BME280;28147;47.520;18.920;2023-05-03T08:02:20;98868.22;;;22.53;48.48
42519;BME280;28147;47.520;18.920;2023-05-03T08:04:46;98869.31;;;22.38;51.80
42519;BME280;28147;47.520;18.920;2023-05-03T08:07:12;98866.47;;;21.97;50.82
42519;BME280;28147;47.520;18.920;2023-05-03T08:09:38;98876.97;;;22.36;51.65
42519;BME280;28147;47.520;18.920;2023-05-03T08:12:03;98870.09;;;21.92;54.84
42519;BME280;28147;47.520;18.920;2023-05-03T08:14:29;98876.09;;;22.82;53.23
42519;BME280;28147;47.520;18.920;2023-05-03T08:16:54;98878.41;;;22.15;49.80
42519;BME280;28147;47.520;18.920;2023-05-03T08:19:20;98882.84;;;22.85;50.42
42519;BME280;28147;47.520;18.920;2023-05-03T08:21:45;98876.69;;;23.06;45.06
42519;BME280;28147;47.520;18.920;2023-05-03T08:24:14;98877.72;;;23.83;44.81
42519;BME280;28147;47.520;18.920;2023-05-03T08:26:39;98873.16;;;24.94;45.34
42519;BME280;28147;47.520;18.920;2023-05-03T08:29:05;98877.59;;;25.73;43.24
42519;BME280;28147;47.520;18.920;2023-05-03T08:31:31;98871.00;;;25.14;42.34
42519;BME280;28147;47.520;18.920;2023-05-03T08:33:56;98875.38;;;24.84;43.13
42519;BME280;28147;47.520;18.920;2023-05-03T08:36:22;98869.16;;;24.21;42.62
42519;BME280;28147;47.520;18.920;2023-05-03T08:38:48;98873.28;;;23.87;45.78
42519;BME280;28147;47.520;18.920;2023-05-03T08:41:27;98885.88;;;24.59;43.63
42519;BME280;28147;47.520;18.920;2023-05-03T08:43:54;98881.06;;;24.02;42.58
42519;BME280;28147;47.520;18.920;2023-05-03T08:46:21;98885.38;;;23.81;42.69
42519;BME280;28147;47.520;18.920;2023-05-03T08:48:48;98888.97;;;23.54;44.58
42519;BME280;28147;47.520;18.920;2023-05-03T08:51:18;98883.50;;;23.31;44.10
42519;BME280;28147;47.520;18.920;2023-05-03T08:53:44;98886.09;;;24.18;46.34
42519;BME280;28147;47.520;18.920;2023-05-03T08:56:15;98883.94;;;24.60;46.69
42519;BME280;28147;47.520;18.920;2023-05-03T08:58:42;98893.50;;;24.48;45.23
42519;BME280;28147;47.520;18.920;2023-05-03T09:01:08;98891.63;;;24.35;45.20
42519;BME280;28147;47.520;18.920;2023-05-03T09:03:35;98892.66;;;24.17;45.12
42519;BME280;28147;47.520;18.920;2023-05-03T09:06:01;98890.44;;;24.19;44.71
42519;BME280;28147;47.520;18.920;2023-05-03T09:08:30;98896.38;;;24.83;44.73
42519;BME280;28147;47.520;18.920;2023-05-03T09:10:56;98889.50;;;24.55;44.65
42519;BME280;28147;47.520;18.920;2023-05-03T09:13:29;98890.84;;;24.66;44.27
42519;BME280;28147;47.520;18.920;2023-05-03T09:15:56;98893.97;;;24.82;43.60
42519;BME280;28147;47.520;18.920;2023-05-03T09:18:22;98895.59;;;25.00;43.82
42519;BME280;28147;47.520;18.920;2023-05-03T09:20:49;98892.31;;;24.72;44.85
42519;BME280;28147;47.520;18.920;2023-05-03T09:23:34;98893.75;;;25.18;43.97
42519;BME280;28147;47.520;18.920;2023-05-03T09:25:59;98896.38;;;24.92;42.97
42519;BME280;28147;47.520;18.920;2023-05-03T09:28:25;98886.44;;;24.87;43.49
42519;BME280;28147;47.520;18.920;2023-05-03T09:31:05;98887.78;;;22.96;45.83
42519;BME280;28147;47.520;18.920;2023-05-03T09:33:32;98893.03;;;23.29;45.13
42519;BME280;28147;47.520;18.920;2023-05-03T09:36:02;98886.22;;;23.90;45.98
42519;BME280;28147;47.520;18.920;2023-05-03T09:38:33;98895.50;;;23.67;45.56
42519;BME280;28147;47.520;18.920;2023-05-03T09:41:01;98887.94;;;23.27;45.23
42519;BME280;28147;47.520;18.920;2023-05-03T09:43:27;98887.47;;;22.98;44.63
42519;BME280;28147;47.520;18.920;2023-05-03T09:46:12;98890.50;;;23.46;45.30
42519;BME280;28147;47.520;18.920;2023-05-03T09:48:38;98891.78;;;23.13;44.95
42519;BME280;28147;47.520;18.920;2023-05-03T09:51:05;98898.69;;;23.33;46.40
42519;BME280;28147;47.520;18.920;2023-05-03T09:53:32;98894.69;;;23.66;45.15
42519;BME280;28147;47.520;18.920;2023-05-03T09:55:58;98894.97;;;23.28;45.59
42519;BME280;28147;47.520;18.920;2023-05-03T09:58:26;98897.59;;;23.06;46.71
42519;BME280;28147;47.520;18.920;2023-05-03T10:00:55;98892.91;;;22.98;46.06
42519;BME280;28147;47.520;18.920;2023-05-03T10:05:54;98890.38;;;22.74;47.73
42519;BME280;28147;47.520;18.920;2023-05-03T10:08:33;98891.91;;;22.94;48.80
42519;BME280;28147;47.520;18.920;2023-05-03T10:11:03;98890.91;;;23.03;48.73
42519;BME280;28147;47.520;18.920;2023-05-03T10:13:29;98888.97;;;23.04;47.27
42519;BME280;28147;47.520;18.920;2023-05-03T10:16:02;98890.88;;;22.90;47.56
42519;BME280;28147;47.520;18.920;2023-05-03T10:18:31;98890.78;;;22.95;48.41
42519;BME280;28147;47.520;18.920;2023-05-03T10:21:03;98894.63;;;23.44;47.57
42519;BME280;28147;47.520;18.920;2023-05-03T10:23:31;98884.63;;;22.89;48.13
42519;BME280;28147;47.520;18.920;2023-05-03T10:26:16;98884.53;;;22.94;46.57
42519;BME280;28147;47.520;18.920;2023-05-03T10:28:42;98884.16;;;23.01;47.84
42519;BME280;28147;47.520;18.920;2023-05-03T10:31:46;98889.47;;;23.06;48.41
42519;BME280;28147;47.520;18.920;2023-05-03T10:34:22;98887.34;;;23.03;48.08
42519;BME280;28147;47.520;18.920;2023-05-03T10:36:49;98886.47;;;23.08;49.58
42519;BME280;28147;47.520;18.920;2023-05-03T10:39:16;98883.50;;;22.76;48.66
42519;BME280;28147;47.520;18.920;2023-05-03T10:41:43;98880.41;;;23.11;47.96
42519;BME280;28147;47.520;18.920;2023-05-03T10:44:25;98887.16;;;22.99;48.29
42519;BME280;28147;47.520;18.920;2023-05-03T10:46:52;98885.94;;;23.19;48.29
42519;BME280;28147;47.520;18.920;2023-05-03T10:49:22;98881.84;;;23.08;48.28
42519;BME280;28147;47.520;18.920;2023-05-03T10:51:48;98876.09;;;23.10;48.47
42519;BME280;28147;47.520;18.920;2023-05-03T10:54:13;98878.38;;;23.30;48.40
42519;BME280;28147;47.520;18.920;2023-05-03T10:56:50;98877.84;;;23.42;47.95
42519;BME280;28147;47.520;18.920;2023-05-03T10:59:15;98872.22;;;23.24;48.79
42519;BME280;28147;47.520;18.920;2023-05-03T11:01:43;98874.41;;;23.36;48.48
42519;BME280;28147;47.520;18.920;2023-05-03T11:04:14;98874.47;;;22.95;48.31
42519;BME280;28147;47.520;18.920;2023-05-03T11:06:42;98872.44;;;23.14;48.08
42519;BME280;28147;47.520;18.920;2023-05-03T11:09:10;98871.63;;;23.27;47.76
42519;BME280;28147;47.520;18.920;2023-05-03T11:11:39;98878.06;;;23.31;48.05
42519;BME280;28147;47.520;18.920;2023-05-03T11:14:05;98871.56;;;23.19;48.71
42519;BME280;28147;47.520;18.920;2023-05-03T11:16:32;98867.19;;;23.31;48.33
42519;BME280;28147;47.520;18.920;2023-05-03T11:18:58;98881.84;;;23.08;48.48
42519;BME280;28147;47.520;18.920;2023-05-03T11:21:24;98878.47;;;22.56;49.79
42519;BME280;28147;47.520;18.920;2023-05-03T11:23:50;98874.88;;;22.88;50.16
42519;BME280;28147;47.520;18.920;2023-05-03T11:26:15;98870.50;;;22.92;49.56
42519;BME280;28147;47.520;18.920;2023-05-03T11:28:42;98867.66;;;22.70;50.25
42519;BME280;28147;47.520;18.920;2023-05-03T11:31:08;98872.16;;;22.88;50.02
42519;BME280;28147;47.520;18.920;2023-05-03T11:33:36;98881.91;;;22.89;50.34
42519;BME280;28147;47.520;18.920;2023-05-03T11:36:03;98878.00;;;23.09;49.95
42519;BME280;28147;47.520;18.920;2023-05-03T11:38:30;98880.91;;;23.13;49.13
42519;BME280;28147;47.520;18.920;2023-05-03T11:40:57;98874.28;;;23.19;48.27
42519;BME280;28147;47.520;18.920;2023-05-03T11:43:22;98877.50;;;23.07;50.92
42519;BME280;28147;47.520;18.920;2023-05-03T11:45:51;98870.38;;;22.97;50.70
42519;BME280;28147;47.520;18.920;2023-05-03T11:48:18;98871.56;;;23.19;51.15
42519;BME280;28147;47.520;18.920;2023-05-03T11:50:51;98864.53;;;23.40;50.00
42519;BME280;28147;47.520;18.920;2023-05-03T11:53:24;98874.03;;;23.29;51.52
42519;BME280;28147;47.520;18.920;2023-05-03T11:55:51;98881.38;;;23.28;51.28
42519;BME280;28147;47.520;18.920;2023-05-03T11:58:26;98869.63;;;23.19;50.77
42519;BME280;28147;47.520;18.920;2023-05-03T12:00:55;98870.84;;;23.27;50.66
42519;BME280;28147;47.520;18.920;2023-05-03T12:03:29;98873.63;;;23.22;50.32
42519;BME280;28147;47.520;18.920;2023-05-03T12:05:55;98875.78;;;22.70;50.79
42519;BME280;28147;47.520;18.920;2023-05-03T12:08:26;98870.03;;;22.71;51.98
42519;BME280;28147;47.520;18.920;2023-05-03T12:10:52;98867.84;;;23.15;51.63
42519;BME280;28147;47.520;18.920;2023-05-03T12:13:28;98871.44;;;22.69;52.34
42519;BME280;28147;47.520;18.920;2023-05-03T12:15:58;98867.75;;;22.78;52.49
42519;BME280;28147;47.520;18.920;2023-05-03T12:18:27;98874.47;;;23.09;52.49
42519;BME280;28147;47.520;18.920;2023-05-03T12:20:56;98868.25;;;23.08;52.08
42519;BME280;28147;47.520;18.920;2023-05-03T12:23:24;98872.09;;;23.07;52.05
42519;BME280;28147;47.520;18.920;2023-05-03T12:25:51;98865.22;;;23.10;52.26
42519;BME280;28147;47.520;18.920;2023-05-03T12:28:17;98861.50;;;22.92;52.42
42519;BME280;28147;47.520;18.920;2023-05-03T12:30:42;98863.09;;;22.65;53.15
42519;BME280;28147;47.520;18.920;2023-05-03T12:33:08;98854.97;;;23.06;52.76
42519;BME280;28147;47.520;18.920;2023-05-03T12:35:35;98855.38;;;22.86;53.11
42519;BME280;28147;47.520;18.920;2023-05-03T12:38:01;98854.69;;;22.67;52.29
42519;BME280;28147;47.520;18.920;2023-05-03T12:40:30;98850.66;;;22.64;53.35
42519;BME280;28147;47.520;18.920;2023-05-03T12:42:56;98857.16;;;22.91;52.94
42519;BME280;28147;47.520;18.920;2023-05-03T12:45:21;98855.38;;;22.58;53.15
42519;BME280;28147;47.520;18.920;2023-05-03T12:47:47;98850.34;;;22.66;53.32
42519;BME280;28147;47.520;18.920;2023-05-03T12:50:12;98846.00;;;22.65;53.58
42519;BME280;28147;47.520;18.920;2023-05-03T12:52:37;98841.28;;;22.56;53.63
42519;BME280;28147;47.520;18.920;2023-05-03T12:55:04;98846.84;;;22.51;53.89
42519;BME280;28147;47.520;18.920;2023-05-03T12:57:30;98840.91;;;22.63;53.97
42519;BME280;28147;47.520;18.920;2023-05-03T12:59:56;98836.69;;;22.43;53.79